Aviation Digital Data Service (ADDS)

Output produced by METARs form (2237 UTC 21 May 2022)
found at http://www.aviationweather.gov/metar/data/
 
EGFF 212220Z AUTO 30008KT 9999 NCD 11/08 Q1020
EGFF 212150Z AUTO 32006KT 9999 NCD 12/06 Q1020
EGFF 212120Z AUTO 29003KT 9999 NCD 12/06 Q1020
EGFF 212050Z AUTO 25002KT 9999 FEW046 12/06 Q1020
EGFF 212020Z AUTO 25002KT 9999 NCD 12/06 Q1020
EGFF 211950Z AUTO 31004KT 9999 NCD 12/06 Q1019
TAF EGFF 211701Z 2118/2218 29010KT 9999 SCT025 
     BECMG 2121/2124 18005KT 
     PROB30 
     TEMPO 2121/2208 6000 BKN008 
     BECMG 2214/2217 27010KT